createdAt,value
2022-10-10T00:01:10.906Z,37.55
2022-10-10T00:03:39.961Z,37.72
2022-10-10T00:06:09.541Z,41.95
2022-10-10T00:08:41.698Z,43.65
2022-10-10T00:11:10.229Z,38.78
2022-10-10T00:13:43.305Z,37.55
2022-10-10T00:16:45.879Z,44.33
2022-10-10T00:19:13.758Z,28.50
2022-10-10T00:21:41.960Z,29.88
2022-10-10T00:24:10.432Z,35.88
2022-10-10T00:26:38.405Z,30.05
2022-10-10T00:29:07.619Z,31.58
2022-10-10T00:31:35.493Z,37.30
2022-10-10T00:34:03.442Z,31.63
2022-10-10T00:36:49.373Z,37.63
2022-10-10T00:39:17.201Z,25.55
2022-10-10T00:41:45.342Z,34.03
2022-10-10T00:44:21.766Z,32.50
2022-10-10T00:46:49.761Z,30.13
2022-10-10T00:49:20.527Z,31.33
2022-10-10T00:51:52.162Z,28.08
2022-10-10T00:54:40.700Z,27.50
2022-10-10T01:00:40.720Z,28.63
2022-10-10T01:03:14.225Z,29.00
2022-10-10T01:05:44.364Z,23.75
2022-10-10T01:08:14.571Z,29.27
2022-10-10T01:10:53.990Z,24.33
2022-10-10T01:13:29.354Z,25.00
2022-10-10T01:16:23.946Z,26.95
2022-10-10T01:19:01.274Z,26.63
2022-10-10T01:21:36.552Z,31.92
2022-10-10T01:24:29.998Z,24.77
2022-10-10T01:27:19.155Z,25.83
2022-10-10T01:29:53.225Z,23.58
2022-10-10T01:32:29.560Z,24.00
2022-10-10T01:35:07.965Z,29.17
2022-10-10T01:37:43.127Z,24.10
2022-10-10T01:40:18.902Z,25.92
2022-10-10T01:42:52.129Z,20.27
2022-10-10T01:45:50.270Z,20.65
2022-10-10T01:48:40.291Z,25.23
2022-10-10T01:51:42.063Z,18.60
2022-10-10T01:54:21.250Z,27.15
2022-10-10T01:57:01.123Z,24.35
2022-10-10T01:59:40.369Z,20.73
2022-10-10T02:02:19.080Z,20.45
2022-10-10T02:04:50.917Z,19.55
2022-10-10T02:07:25.047Z,23.17
2022-10-10T02:09:54.971Z,23.95
2022-10-10T02:12:24.320Z,27.30
2022-10-10T02:14:56.385Z,19.75
2022-10-10T02:17:27.805Z,19.67
2022-10-10T02:19:58.257Z,24.65
2022-10-10T02:22:29.210Z,21.40
2022-10-10T02:24:57.438Z,27.83
2022-10-10T02:27:33.476Z,19.58
2022-10-10T02:30:05.209Z,20.30
2022-10-10T02:32:40.337Z,19.63
2022-10-10T02:35:11.384Z,19.58
2022-10-10T02:37:42.535Z,16.75
2022-10-10T02:40:27.499Z,22.23
2022-10-10T02:42:58.299Z,20.15
2022-10-10T02:45:28.608Z,17.58
2022-10-10T02:48:04.390Z,18.63
2022-10-10T02:50:47.073Z,16.77
2022-10-10T02:53:15.089Z,19.90
2022-10-10T02:55:42.915Z,20.13
2022-10-10T02:58:10.779Z,23.90
2022-10-10T03:00:42.033Z,20.02
2022-10-10T03:03:40.538Z,20.33
2022-10-10T03:06:09.957Z,20.48
2022-10-10T03:08:38.918Z,19.30
2022-10-10T03:11:07.265Z,19.17
2022-10-10T03:13:42.658Z,25.27
2022-10-10T03:16:45.050Z,25.58
2022-10-10T03:19:13.011Z,22.05
2022-10-10T03:21:42.144Z,21.50
2022-10-10T03:24:44.485Z,22.15
2022-10-10T03:27:46.832Z,16.83
2022-10-10T03:30:41.842Z,22.80
2022-10-10T03:33:10.481Z,19.40
2022-10-10T03:35:41.970Z,24.08
2022-10-10T03:38:12.333Z,18.40
2022-10-10T03:40:41.833Z,20.00
2022-10-10T03:43:10.283Z,24.88
2022-10-10T03:45:52.781Z,17.73
2022-10-10T03:48:31.241Z,24.17
2022-10-10T03:51:40.937Z,19.80
2022-10-10T03:54:10.349Z,15.75
2022-10-10T03:56:42.641Z,18.15
2022-10-10T03:59:10.753Z,24.63
2022-10-10T04:01:49.305Z,21.98
2022-10-10T04:10:11.970Z,17.33
2022-10-10T04:12:41.485Z,25.75
2022-10-10T04:15:10.384Z,23.20
2022-10-10T04:17:41.602Z,16.13
2022-10-10T04:20:10.081Z,24.98
2022-10-10T04:22:37.850Z,17.67
2022-10-10T04:28:24.236Z,18.25
2022-10-10T04:30:52.689Z,15.50
2022-10-10T04:33:20.398Z,16.08
2022-10-10T04:35:50.066Z,20.02
2022-10-10T04:39:12.920Z,18.63
2022-10-10T04:41:57.098Z,18.10
2022-10-10T04:44:28.423Z,16.60
2022-10-10T04:46:56.295Z,16.60
2022-10-10T04:49:24.134Z,17.10
2022-10-10T04:51:52.231Z,23.05
2022-10-10T04:54:19.997Z,22.17
2022-10-10T04:56:47.906Z,24.48
2022-10-10T04:59:15.770Z,29.20
2022-10-10T05:01:45.011Z,30.23
2022-10-10T05:04:13.096Z,24.65
2022-10-10T05:06:41.177Z,27.80
2022-10-10T05:09:09.106Z,23.25
2022-10-10T05:11:37.095Z,30.27
2022-10-10T05:14:05.268Z,31.45
2022-10-10T05:16:33.181Z,26.23
2022-10-10T05:19:02.369Z,24.25
2022-10-10T05:21:31.638Z,23.55
2022-10-10T05:23:59.353Z,27.80
2022-10-10T05:26:27.821Z,25.58
2022-10-10T05:28:55.696Z,27.23
2022-10-10T05:31:23.692Z,32.42
2022-10-10T05:33:51.438Z,32.65
2022-10-10T05:36:20.832Z,30.73
2022-10-10T05:38:48.529Z,29.13
2022-10-10T05:41:16.400Z,31.83
2022-10-10T05:43:44.614Z,24.95
2022-10-10T05:46:12.611Z,24.25
2022-10-10T05:48:40.817Z,34.40
2022-10-10T05:51:08.820Z,24.13
2022-10-10T05:53:37.876Z,27.15
2022-10-10T05:56:06.198Z,78.93
2022-10-10T05:58:34.102Z,160.65
2022-10-10T06:01:05.510Z,60.13
2022-10-10T06:03:33.830Z,42.20
2022-10-10T06:06:02.229Z,34.50
2022-10-10T06:08:31.153Z,29.20
2022-10-10T06:11:05.234Z,27.67
2022-10-10T06:13:33.569Z,30.95
2022-10-10T06:16:01.465Z,35.40
2022-10-10T06:18:29.230Z,36.88
2022-10-10T06:21:02.417Z,33.17
2022-10-10T06:23:30.159Z,41.20
2022-10-10T06:25:58.490Z,33.83
2022-10-10T06:28:27.682Z,35.53
2022-10-10T06:30:55.646Z,27.70
2022-10-10T06:33:23.840Z,36.20
2022-10-10T06:35:51.713Z,35.70
2022-10-10T06:38:19.436Z,36.85
2022-10-10T06:40:47.973Z,36.53
2022-10-10T06:43:17.293Z,35.13
2022-10-10T06:45:50.666Z,40.45
2022-10-10T06:48:18.477Z,35.05
2022-10-10T06:50:56.926Z,30.48
2022-10-10T06:53:24.735Z,31.00
2022-10-10T06:55:53.833Z,31.00
2022-10-10T06:58:21.981Z,28.23
2022-10-10T07:00:53.025Z,23.00
2022-10-10T07:03:21.712Z,29.38
2022-10-10T07:05:52.225Z,26.98
2022-10-10T07:08:20.699Z,34.78
2022-10-10T07:10:48.931Z,36.55
2022-10-10T07:13:17.193Z,26.55
2022-10-10T07:15:45.360Z,30.33
2022-10-10T07:18:15.121Z,27.08
2022-10-10T07:20:43.058Z,33.85
2022-10-10T07:23:11.173Z,28.20
2022-10-10T07:25:40.303Z,25.38
2022-10-10T07:28:09.030Z,24.77
2022-10-10T07:30:40.933Z,26.00
2022-10-10T07:33:08.715Z,22.27
2022-10-10T07:35:37.975Z,26.17
2022-10-10T07:38:06.456Z,20.02
2022-10-10T07:40:34.469Z,22.58
2022-10-10T07:43:02.160Z,17.05
2022-10-10T07:45:30.149Z,17.73
2022-10-10T07:47:58.106Z,21.67
2022-10-10T07:50:26.024Z,22.38
2022-10-10T07:52:55.242Z,24.85
2022-10-10T07:55:23.126Z,15.93
2022-10-10T07:57:53.414Z,13.90
2022-10-10T08:00:21.986Z,18.25
2022-10-10T08:02:50.803Z,12.07
2022-10-10T08:05:18.807Z,9.82
2022-10-10T08:07:47.146Z,9.38
2022-10-10T08:10:17.417Z,10.82
2022-10-10T08:12:45.385Z,11.25
2022-10-10T08:15:13.947Z,11.18
2022-10-10T08:17:41.831Z,7.57
2022-10-10T08:20:10.526Z,10.82
2022-10-10T08:22:38.381Z,8.52
2022-10-10T08:25:07.378Z,8.35
2022-10-10T08:27:36.527Z,14.52
2022-10-10T08:30:05.335Z,9.23
2022-10-10T08:32:33.119Z,14.68
2022-10-10T08:35:00.994Z,6.15
2022-10-10T08:37:32.777Z,6.38
2022-10-10T08:40:04.999Z,7.13
2022-10-10T08:42:45.586Z,5.93
2022-10-10T08:45:19.005Z,9.38
2022-10-10T08:47:52.182Z,10.02
2022-10-10T08:50:24.916Z,12.13
2022-10-10T08:52:58.004Z,6.68
2022-10-10T08:55:33.380Z,3.70
2022-10-10T08:58:08.569Z,5.82
2022-10-10T09:00:41.337Z,4.32
2022-10-10T09:03:20.862Z,5.97
2022-10-10T09:06:02.920Z,8.88
2022-10-10T09:08:41.822Z,6.82
2022-10-10T09:11:18.073Z,4.60
2022-10-10T09:13:59.262Z,7.45
2022-10-10T09:16:37.829Z,5.70
2022-10-10T09:19:17.501Z,5.93
2022-10-10T09:21:47.255Z,7.18
2022-10-10T09:24:20.918Z,4.20
2022-10-10T09:26:52.177Z,6.50
2022-10-10T09:29:30.010Z,3.87
2022-10-10T09:32:02.422Z,3.42
2022-10-10T09:34:35.167Z,8.20
2022-10-10T09:37:04.686Z,4.97
2022-10-10T09:39:39.602Z,5.30
2022-10-10T09:42:13.033Z,8.55
2022-10-10T09:44:43.510Z,5.55
2022-10-10T09:47:14.855Z,4.45
2022-10-10T09:49:42.949Z,3.00
2022-10-10T09:52:24.260Z,6.38
2022-10-10T09:54:56.290Z,3.47
2022-10-10T09:59:56.125Z,4.13
2022-10-10T10:02:26.201Z,4.05
2022-10-10T10:04:54.733Z,7.30
2022-10-10T10:07:27.559Z,3.88
2022-10-10T10:09:59.164Z,7.20
2022-10-10T10:12:30.174Z,5.20
2022-10-10T10:15:04.333Z,6.68
2022-10-10T10:17:32.866Z,4.35
2022-10-10T10:20:00.545Z,4.38
2022-10-10T10:22:34.772Z,7.50
2022-10-10T10:25:32.533Z,3.38
2022-10-10T10:28:20.726Z,6.82
2022-10-10T10:30:53.414Z,8.32
2022-10-10T10:33:37.635Z,7.07
2022-10-10T10:36:14.243Z,6.80
2022-10-10T10:38:45.719Z,9.35
2022-10-10T10:41:24.313Z,17.95
2022-10-10T10:44:06.437Z,8.10
2022-10-10T10:49:18.759Z,6.97
2022-10-10T10:52:08.533Z,4.10
2022-10-10T10:54:50.078Z,4.00
2022-10-10T10:57:37.108Z,3.95
2022-10-10T11:00:21.727Z,3.55
2022-10-10T11:03:34.954Z,6.43
2022-10-10T11:06:13.093Z,4.15
2022-10-10T11:08:53.153Z,5.80
2022-10-10T11:11:34.461Z,7.15
2022-10-10T11:14:10.601Z,4.47
2022-10-10T11:16:48.530Z,3.58
2022-10-10T11:19:29.081Z,4.53
2022-10-10T11:22:04.220Z,4.65
2022-10-10T11:24:42.294Z,4.00
2022-10-10T11:27:16.932Z,4.25
2022-10-10T11:30:01.162Z,6.68
2022-10-10T11:32:33.534Z,6.88
2022-10-10T11:35:13.336Z,5.53
2022-10-10T11:37:47.291Z,7.57
2022-10-10T11:40:33.700Z,5.97
2022-10-10T11:43:06.219Z,4.47
2022-10-10T11:45:39.002Z,6.03
2022-10-10T11:48:18.981Z,4.40
2022-10-10T11:50:54.005Z,8.68
2022-10-10T11:53:27.888Z,6.43
2022-10-10T11:56:00.070Z,7.45
2022-10-10T11:58:34.275Z,8.68
2022-10-10T12:01:06.994Z,3.45
2022-10-10T12:03:35.213Z,4.65
2022-10-10T12:06:13.379Z,6.22
2022-10-10T12:08:47.605Z,7.85
2022-10-10T12:11:20.674Z,5.15
2022-10-10T12:13:54.273Z,7.88
2022-10-10T12:16:29.567Z,5.68
2022-10-10T12:19:03.273Z,6.88
2022-10-10T12:21:50.929Z,6.55
2022-10-10T12:24:19.394Z,7.82
2022-10-10T12:27:27.470Z,6.07
2022-10-10T12:30:19.454Z,5.32
2022-10-10T12:32:50.117Z,5.80
2022-10-10T12:35:42.280Z,6.07
2022-10-10T12:38:21.550Z,5.90
2022-10-10T12:41:14.528Z,4.88
2022-10-10T12:44:13.201Z,5.65
2022-10-10T12:46:43.672Z,6.97
2022-10-10T12:49:22.509Z,5.70
2022-10-10T12:52:02.252Z,8.48
2022-10-10T12:54:33.123Z,5.35
2022-10-10T12:57:10.505Z,6.97
2022-10-10T12:59:39.700Z,9.02
2022-10-10T13:02:17.568Z,7.25
2022-10-10T13:04:47.569Z,4.95
2022-10-10T13:07:18.959Z,4.97
2022-10-10T13:09:49.378Z,4.25
2022-10-10T13:12:28.305Z,7.00
2022-10-10T13:14:57.423Z,5.32
2022-10-10T13:17:29.467Z,5.57
2022-10-10T13:19:58.790Z,4.55
2022-10-10T13:22:28.358Z,7.82
2022-10-10T13:24:56.689Z,7.03
2022-10-10T13:27:28.129Z,4.63
2022-10-10T13:29:56.960Z,8.50
2022-10-10T13:32:29.243Z,8.23
2022-10-10T13:35:00.242Z,6.20
2022-10-10T13:37:29.396Z,5.03
2022-10-10T13:39:57.873Z,7.63
2022-10-10T13:42:33.509Z,7.28
2022-10-10T13:45:03.238Z,8.73
2022-10-10T13:47:51.448Z,5.10
2022-10-10T13:50:26.669Z,4.70
2022-10-10T13:53:24.057Z,9.73
2022-10-10T13:55:58.804Z,4.88
2022-10-10T13:58:27.679Z,7.85
2022-10-10T14:00:57.305Z,5.55
2022-10-10T14:03:27.606Z,8.10
2022-10-10T14:05:55.600Z,5.00
2022-10-10T14:08:28.262Z,5.78
2022-10-10T14:10:58.298Z,5.68
2022-10-10T14:13:26.376Z,8.38
2022-10-10T14:15:54.481Z,6.93
2022-10-10T14:18:24.574Z,7.47
2022-10-10T14:20:55.567Z,15.18
2022-10-10T14:23:23.749Z,6.68
2022-10-10T14:25:51.613Z,7.18
2022-10-10T14:28:22.556Z,8.77
2022-10-10T14:30:50.569Z,15.82
2022-10-10T14:33:20.332Z,10.15
2022-10-10T14:35:51.665Z,8.27
2022-10-10T14:38:21.165Z,9.52
2022-10-10T14:40:50.696Z,11.55
2022-10-10T14:43:22.574Z,5.90
2022-10-10T14:45:51.722Z,6.88
2022-10-10T14:48:20.406Z,6.68
2022-10-10T14:50:49.465Z,9.68
2022-10-10T14:53:18.004Z,6.00
2022-10-10T14:55:47.657Z,10.27
2022-10-10T14:58:18.739Z,6.53
2022-10-10T15:00:47.252Z,7.20
2022-10-10T15:03:15.730Z,8.98
2022-10-10T15:05:43.714Z,6.40
2022-10-10T15:08:14.186Z,7.40
2022-10-10T15:10:42.425Z,6.22
2022-10-10T15:13:12.500Z,8.45
2022-10-10T15:15:41.009Z,6.38
2022-10-10T15:18:25.607Z,8.55
2022-10-10T15:20:57.773Z,10.75
2022-10-10T15:23:26.952Z,9.93
2022-10-10T15:25:54.763Z,11.27
2022-10-10T15:28:24.358Z,16.17
2022-10-10T15:30:52.694Z,12.88
2022-10-10T15:33:20.381Z,14.20
2022-10-10T15:36:09.101Z,17.63
2022-10-10T15:38:37.850Z,17.38
2022-10-10T15:41:08.918Z,12.98
2022-10-10T15:43:45.130Z,12.57
2022-10-10T15:46:13.589Z,19.73
2022-10-10T15:48:41.327Z,61.97
2022-10-10T15:51:09.644Z,156.60
2022-10-10T15:53:38.144Z,263.90
2022-10-10T15:56:10.105Z,179.95
2022-10-10T15:58:41.144Z,70.68
2022-10-10T16:01:13.568Z,20.63
2022-10-10T16:03:41.937Z,13.02
2022-10-10T16:06:10.305Z,7.95
2022-10-10T16:08:38.974Z,16.80
2022-10-10T16:11:08.189Z,15.25
2022-10-10T16:13:37.128Z,15.32
2022-10-10T16:16:08.818Z,17.02
2022-10-10T16:18:40.304Z,19.40
2022-10-10T16:21:10.521Z,22.52
2022-10-10T16:23:38.797Z,15.52
2022-10-10T16:26:08.831Z,16.85
2022-10-10T16:28:36.922Z,21.83
2022-10-10T16:31:09.010Z,17.30
2022-10-10T16:33:39.185Z,18.70
2022-10-10T16:36:09.977Z,17.63
2022-10-10T16:38:38.322Z,16.70
2022-10-10T16:41:19.663Z,15.75
2022-10-10T16:43:56.852Z,15.18
2022-10-10T16:46:27.726Z,13.63
2022-10-10T16:48:58.140Z,14.98
2022-10-10T16:51:28.391Z,14.10
2022-10-10T16:53:56.449Z,16.40
2022-10-10T16:56:24.348Z,18.08
2022-10-10T16:58:52.438Z,24.83
2022-10-10T17:01:22.293Z,22.88
2022-10-10T17:03:52.587Z,19.77
2022-10-10T17:06:23.289Z,16.55
2022-10-10T17:08:52.844Z,17.98
2022-10-10T17:11:22.826Z,21.38
2022-10-10T17:13:51.816Z,18.95
2022-10-10T17:16:59.713Z,20.42
2022-10-10T17:19:11.641Z,15.95
2022-10-10T17:21:39.721Z,16.35
2022-10-10T17:24:07.846Z,25.05
2022-10-10T17:26:35.870Z,25.55
2022-10-10T17:29:03.767Z,27.67
2022-10-10T17:31:31.511Z,17.73
2022-10-10T17:33:59.565Z,18.85
2022-10-10T17:36:29.474Z,32.58
2022-10-10T17:39:00.075Z,29.85
2022-10-10T17:41:29.627Z,29.27
2022-10-10T17:43:57.445Z,23.15
2022-10-10T17:46:36.327Z,28.17
2022-10-10T17:49:06.665Z,22.95
2022-10-10T17:51:37.030Z,32.22
2022-10-10T17:54:06.305Z,29.98
2022-10-10T17:56:35.221Z,36.25
2022-10-10T17:59:06.166Z,39.13
2022-10-10T18:01:35.060Z,38.53
2022-10-10T18:04:03.352Z,32.30
2022-10-10T18:06:31.881Z,32.25
2022-10-10T18:09:01.390Z,36.05
2022-10-10T18:11:31.731Z,79.13
2022-10-10T18:14:01.241Z,61.10
2022-10-10T18:16:32.397Z,58.75
2022-10-10T18:19:00.986Z,44.63
2022-10-10T18:21:29.123Z,39.05
2022-10-10T18:23:57.624Z,38.97
2022-10-10T18:26:30.062Z,40.80
2022-10-10T18:28:58.514Z,30.77
2022-10-10T18:31:28.302Z,35.10
2022-10-10T18:33:56.934Z,36.10
2022-10-10T18:36:27.073Z,33.33
2022-10-10T18:38:55.101Z,36.70
2022-10-10T18:41:25.154Z,34.50
2022-10-10T18:43:56.968Z,37.42
2022-10-10T18:46:25.649Z,32.72
2022-10-10T18:48:54.365Z,33.45
2022-10-10T18:51:25.133Z,48.22
2022-10-10T18:53:56.876Z,51.60
2022-10-10T18:56:25.209Z,58.38
2022-10-10T18:58:57.566Z,51.28
2022-10-10T19:01:28.138Z,52.22
2022-10-10T19:03:56.419Z,54.42
2022-10-10T19:06:25.644Z,57.20
2022-10-10T19:08:56.334Z,52.88
2022-10-10T19:11:27.450Z,45.65
2022-10-10T19:13:57.337Z,45.78
2022-10-10T19:16:25.218Z,48.67
2022-10-10T19:18:57.536Z,40.42
2022-10-10T19:21:27.468Z,45.17
2022-10-10T19:23:55.275Z,44.75
2022-10-10T19:26:23.455Z,44.63
2022-10-10T19:28:51.877Z,41.05
2022-10-10T19:31:22.502Z,41.25
2022-10-10T19:33:53.142Z,43.70
2022-10-10T19:36:21.366Z,41.00
2022-10-10T19:38:49.290Z,41.97
2022-10-10T19:41:17.709Z,46.45
2022-10-10T19:43:48.826Z,40.25
2022-10-10T19:46:18.314Z,37.75
2022-10-10T19:48:47.886Z,48.88
2022-10-10T19:51:16.956Z,43.03
2022-10-10T19:53:46.140Z,52.85
2022-10-10T19:56:16.454Z,51.70
2022-10-10T19:58:44.464Z,45.47
2022-10-10T20:01:14.839Z,45.83
2022-10-10T20:03:43.843Z,41.55
2022-10-10T20:06:13.235Z,45.88
2022-10-10T20:08:41.987Z,46.53
2022-10-10T20:11:10.459Z,44.60
2022-10-10T20:13:38.178Z,43.35
2022-10-10T20:16:09.272Z,41.13
2022-10-10T20:18:39.709Z,48.85
2022-10-10T20:21:15.560Z,43.35
2022-10-10T20:23:46.643Z,46.03
2022-10-10T20:26:16.360Z,44.00
2022-10-10T20:28:45.310Z,43.58
2022-10-10T20:31:19.868Z,56.28
2022-10-10T20:33:48.055Z,49.65
2022-10-10T20:36:16.842Z,62.05
2022-10-10T20:38:46.406Z,75.80
2022-10-10T20:41:14.294Z,59.45
2022-10-10T20:43:42.451Z,62.70
2022-10-10T20:46:12.868Z,66.80
2022-10-10T20:48:41.194Z,57.38
2022-10-10T20:51:12.292Z,60.33
2022-10-10T20:53:42.355Z,48.42
2022-10-10T20:56:13.466Z,52.15
2022-10-10T20:58:41.822Z,52.47
2022-10-10T21:01:11.549Z,57.17
2022-10-10T21:03:41.240Z,48.08
2022-10-10T21:06:11.318Z,47.83
2022-10-10T21:08:39.436Z,54.22
2022-10-10T21:11:08.789Z,40.40
2022-10-10T21:13:40.242Z,39.90
2022-10-10T21:16:10.742Z,46.17
2022-10-10T21:18:38.704Z,47.78
2022-10-10T21:21:08.328Z,54.08
2022-10-10T21:23:38.400Z,48.17
2022-10-10T21:26:07.186Z,46.72
2022-10-10T21:28:36.329Z,47.28
2022-10-10T21:31:06.326Z,46.33
2022-10-10T21:33:35.310Z,44.55
2022-10-10T21:36:03.371Z,47.92
2022-10-10T21:38:31.535Z,48.25
2022-10-10T21:41:06.544Z,48.03
2022-10-10T21:43:35.218Z,49.97
2022-10-10T21:46:05.878Z,52.65
2022-10-10T21:48:33.968Z,48.08
2022-10-10T21:51:02.828Z,44.25
2022-10-10T21:53:30.805Z,41.80
2022-10-10T21:55:58.907Z,40.25
2022-10-10T21:58:27.257Z,40.83
2022-10-10T22:00:55.055Z,44.22
2022-10-10T22:03:24.104Z,51.80
2022-10-10T22:05:52.074Z,54.83
2022-10-10T22:08:19.772Z,41.42
2022-10-10T22:10:48.873Z,46.20
2022-10-10T22:13:16.918Z,47.13
2022-10-10T22:15:44.745Z,53.72
2022-10-10T22:18:12.666Z,45.70
2022-10-10T22:20:41.979Z,48.55
2022-10-10T22:23:09.750Z,49.80
2022-10-10T22:25:37.565Z,44.10
2022-10-10T22:28:06.491Z,43.55
2022-10-10T22:30:34.313Z,36.65
2022-10-10T22:33:02.093Z,36.42
2022-10-10T22:35:30.424Z,39.17
2022-10-10T22:37:59.477Z,39.33
2022-10-10T22:40:27.467Z,36.63
2022-10-10T22:42:55.442Z,35.33
2022-10-10T22:45:23.763Z,34.53
2022-10-10T22:47:51.995Z,35.08
2022-10-10T22:50:20.130Z,40.45
2022-10-10T22:52:48.239Z,33.95
2022-10-10T22:55:18.933Z,35.60
2022-10-10T22:57:47.093Z,38.85
2022-10-10T23:00:16.516Z,31.10
2022-10-10T23:02:44.799Z,31.38
2022-10-10T23:05:13.250Z,35.10
2022-10-10T23:07:41.188Z,35.20
2022-10-10T23:10:10.078Z,32.53
2022-10-10T23:12:39.436Z,36.67
2022-10-10T23:15:08.222Z,33.63
2022-10-10T23:17:36.149Z,31.58
2022-10-10T23:20:04.586Z,24.92
2022-10-10T23:22:32.539Z,32.75
2022-10-10T23:25:00.463Z,28.65
2022-10-10T23:27:28.473Z,27.83
2022-10-10T23:29:57.829Z,20.30
2022-10-10T23:32:29.387Z,16.17
2022-10-10T23:34:57.873Z,23.75
2022-10-10T23:37:27.618Z,20.40
2022-10-10T23:39:55.381Z,18.90
2022-10-10T23:42:23.828Z,19.17
2022-10-10T23:44:51.591Z,20.15
2022-10-10T23:47:20.642Z,21.90
2022-10-10T23:49:48.645Z,20.92
2022-10-10T23:52:16.808Z,20.60
2022-10-10T23:54:44.686Z,26.02
2022-10-10T23:57:12.713Z,24.08
2022-10-10T23:59:40.430Z,21.75
